메인 페이지
METAR-TAF:

METAR-TAF

공항 :

아가르탈라, 인도

위도: 23-53-24N, 경도: 91-14-32E, 고도: 14m

현재 날씨관측

예보는 7 시간 58분 전, 14:00시(UTC)에 발표되었습니다.
무풍
온도 27°C
습도 84%
기압 1005 hPa
시정: 4000m
고도 1800ft 상공 구름 보통
고도 3000ft 상공 구름 조금, 적란운.
고도 10000ft 상공 구름 많음
박무

METAR: VEAT 281400Z 00000KT 4000 BR SCT018 FEW030CB BKN100 27/24 Q1005 NOSIG

시각: 03:28 (21:58 UTC)

예보

예보는 1 시간 58분 전, 20:00시(UTC)에 발표되었습니다.
예보 대상 시간: 28일 21시부터 29일 06시까지 (UTC)
kt
시정: 3000m
고도 1800ft 상공 구름 보통
고도 10000ft 상공 구름 많음
박무
전환 중
29일 01시부터 29일 03시까지 (UTC)
5kt
시정: 5000m
고도 1800ft 상공 구름 보통
고도 2500ft 상공 구름 보통
박무, 연무

TAF: VEAT 282000Z 2821/2906 00000KT 3000 BR SCT018 BKN100 BECMG 2901/2903 18005KT 5000 BR HZ SCT018 SCT025

4,000개 이상의 공항 관측 자료 및 예보 (METAR 및 TAF 보고).

지도상에서 검색 가능한 기상관측소가 노란 점과 빨간 점으로 표시되어 있습니다.

기상관측소 명을 보려면 표시 위로 마우스를 이동하세요.

날씨 관측과 예보를 보려면 클릭하세요.

지도 변경 : 확대하려면 엑스 표시가 있는 녹색 버튼, 축소하려면 빼기 표시가 있는 녹색 버튼, 다음 페이지의 지도를 보려면 녹색 화살표를 클릭하세요.


METAR-TAF: